createdAt,value
2019-01-15T06:30:00.574Z,4.00
2019-01-15T06:32:33.267Z,4.00
2019-01-15T06:35:05.956Z,4.10
2019-01-15T06:37:38.667Z,4.10
2019-01-15T06:40:11.919Z,4.10
2019-01-15T06:42:44.618Z,4.20
2019-01-15T06:45:19.454Z,4.20
2019-01-15T06:47:52.142Z,4.20
2019-01-15T06:50:24.832Z,4.20
2019-01-15T06:52:57.547Z,4.30
2019-01-15T06:55:30.262Z,4.30
2019-01-15T06:58:02.963Z,4.30
2019-01-15T07:00:35.672Z,4.30
2019-01-15T07:03:08.450Z,4.30
2019-01-15T07:05:41.146Z,4.40
2019-01-15T07:08:14.248Z,4.40
2019-01-15T07:10:46.953Z,4.40
2019-01-15T07:13:19.927Z,4.40
2019-01-15T07:15:52.633Z,4.40
2019-01-15T07:18:25.360Z,4.40
2019-01-15T07:20:58.049Z,4.40
2019-01-15T07:23:30.769Z,4.50
2019-01-15T07:26:03.684Z,4.50
2019-01-15T07:28:36.428Z,4.50
2019-01-15T07:31:09.171Z,4.50
2019-01-15T07:33:41.886Z,4.60
2019-01-15T07:36:14.822Z,4.60
2019-01-15T07:38:47.915Z,4.60
2019-01-15T07:41:20.712Z,4.70
2019-01-15T07:43:53.473Z,4.70
2019-01-15T07:46:26.276Z,4.70
2019-01-15T07:48:59.023Z,4.70
2019-01-15T07:51:31.784Z,4.70
2019-01-15T07:54:04.543Z,4.80
2019-01-15T07:56:37.262Z,4.80
2019-01-15T07:59:10.002Z,4.80
2019-01-15T08:01:43.827Z,4.90
2019-01-15T08:04:16.674Z,4.90
2019-01-15T08:06:49.403Z,4.90
2019-01-15T08:09:22.175Z,5.00
2019-01-15T08:11:54.883Z,5.00
2019-01-15T08:14:27.610Z,5.00
2019-01-15T08:17:00.344Z,5.10
2019-01-15T08:19:33.146Z,5.10
2019-01-15T08:22:05.842Z,5.20
2019-01-15T08:24:38.575Z,5.20
2019-01-15T08:27:11.603Z,5.30
2019-01-15T08:29:44.765Z,5.30
2019-01-15T08:32:17.496Z,5.40
2019-01-15T08:34:50.763Z,5.40
2019-01-15T08:37:26.296Z,5.50
2019-01-15T08:39:59.390Z,5.60
2019-01-15T08:42:32.439Z,5.60
2019-01-15T08:45:05.821Z,5.70
2019-01-15T08:47:38.865Z,5.80
2019-01-15T08:50:12.057Z,5.80
2019-01-15T08:52:44.754Z,5.90
2019-01-15T08:55:17.495Z,5.90
2019-01-15T08:57:50.216Z,6.00
2019-01-15T09:00:24.059Z,6.00
2019-01-15T09:02:56.856Z,6.00
2019-01-15T09:05:29.691Z,6.10
2019-01-15T09:08:02.498Z,6.10
2019-01-15T09:10:35.267Z,6.10
2019-01-15T09:13:08.316Z,6.20
2019-01-15T09:15:41.270Z,6.20
2019-01-15T09:18:14.275Z,6.30
2019-01-15T09:20:47.077Z,6.30
2019-01-15T09:23:19.771Z,6.40
2019-01-15T09:25:52.645Z,6.40
2019-01-15T09:28:25.359Z,6.50
2019-01-15T09:30:58.103Z,6.50
2019-01-15T09:33:31.224Z,6.60
2019-01-15T09:36:03.983Z,6.60
2019-01-15T09:38:36.687Z,6.70
2019-01-15T09:41:09.439Z,6.80
2019-01-15T09:43:42.666Z,6.80
2019-01-15T09:46:15.413Z,6.80
2019-01-15T09:48:48.172Z,6.80
2019-01-15T09:51:20.995Z,6.80
2019-01-15T09:53:54.613Z,6.80
2019-01-15T09:56:27.454Z,6.80
2019-01-15T09:59:00.307Z,6.90
2019-01-15T10:01:33.261Z,6.90
2019-01-15T10:04:06.004Z,7.00
2019-01-15T10:06:38.939Z,7.10
2019-01-15T10:09:11.712Z,7.10
2019-01-15T10:11:44.931Z,7.10
2019-01-15T10:14:17.755Z,7.10
2019-01-15T10:16:50.795Z,7.20
2019-01-15T10:19:23.888Z,7.20
2019-01-15T10:21:56.586Z,7.20
2019-01-15T10:24:29.928Z,7.20
2019-01-15T10:27:03.158Z,7.20
2019-01-15T10:29:36.069Z,7.30
2019-01-15T10:33:05.294Z,7.30
2019-01-15T10:35:56.878Z,7.40
2019-01-15T10:38:30.979Z,7.50
2019-01-15T10:41:03.690Z,7.60
2019-01-15T10:43:36.595Z,7.60
2019-01-15T10:46:09.303Z,7.60
2019-01-15T10:48:42.090Z,7.70
2019-01-15T10:51:14.866Z,7.70
2019-01-15T10:53:48.208Z,7.80
2019-01-15T10:56:20.913Z,7.80
2019-01-15T10:58:53.843Z,7.90
2019-01-15T11:01:26.865Z,7.90
2019-01-15T11:03:59.796Z,8.00
2019-01-15T11:06:33.012Z,8.00
2019-01-15T11:09:07.751Z,8.20
2019-01-15T11:11:40.524Z,8.20
2019-01-15T11:14:13.254Z,8.30
2019-01-15T11:16:46.086Z,8.30
2019-01-15T11:19:18.786Z,8.40
2019-01-15T11:21:51.779Z,8.40
2019-01-15T11:24:24.536Z,8.40
2019-01-15T11:26:57.227Z,8.50
2019-01-15T11:29:32.047Z,8.50
2019-01-15T11:32:04.751Z,8.60
2019-01-15T11:34:39.818Z,8.50
2019-01-15T11:37:12.727Z,8.50
2019-01-15T11:39:45.608Z,8.50
2019-01-15T11:42:18.659Z,8.40
2019-01-15T11:44:51.545Z,8.40
2019-01-15T11:47:24.278Z,8.30
2019-01-15T11:49:57.012Z,8.30
2019-01-15T11:52:29.778Z,8.40
2019-01-15T11:55:02.739Z,8.40
2019-01-15T11:57:35.550Z,8.40
2019-01-15T12:00:15.164Z,8.40
2019-01-15T12:02:47.966Z,8.40
2019-01-15T12:05:22.755Z,8.50
2019-01-15T12:07:55.445Z,8.50
2019-01-15T12:10:28.244Z,8.50
2019-01-15T12:13:20.226Z,8.50
2019-01-15T12:15:53.556Z,8.50
2019-01-15T12:18:26.318Z,8.40
2019-01-15T12:21:01.091Z,8.40
2019-01-15T12:23:35.891Z,8.40
2019-01-15T12:26:08.685Z,8.40
2019-01-15T12:28:42.507Z,8.40
2019-01-15T12:31:15.268Z,8.40
2019-01-15T12:33:49.177Z,8.40
2019-01-15T12:36:22.369Z,8.40
2019-01-15T12:38:56.695Z,8.40
2019-01-15T12:41:29.856Z,8.40
2019-01-15T12:44:03.079Z,8.50
2019-01-15T12:46:35.934Z,8.50
2019-01-15T12:49:11.016Z,8.50
2019-01-15T12:51:44.567Z,8.60
2019-01-15T12:54:18.127Z,8.60
2019-01-15T12:56:50.849Z,8.60
2019-01-15T12:59:23.915Z,8.60
2019-01-15T13:01:56.660Z,8.70
2019-01-15T13:04:29.473Z,8.60
2019-01-15T13:07:03.043Z,8.60
2019-01-15T13:09:35.748Z,8.50
2019-01-15T13:12:08.567Z,8.50
2019-01-15T13:14:41.443Z,8.40
2019-01-15T13:17:15.223Z,8.40
2019-01-15T13:19:47.951Z,8.40
2019-01-15T13:22:20.909Z,8.30
2019-01-15T13:24:53.715Z,8.30
2019-01-15T13:27:26.499Z,8.20
2019-01-15T13:29:59.659Z,8.20
2019-01-15T13:32:33.136Z,8.10
2019-01-15T13:35:05.826Z,8.10
2019-01-15T13:37:38.858Z,8.10
2019-01-15T13:40:11.701Z,8.10
2019-01-15T13:42:44.435Z,8.10
2019-01-15T13:45:17.140Z,8.10
2019-01-15T13:47:49.884Z,8.10
2019-01-15T13:50:22.894Z,8.20
2019-01-15T13:52:55.975Z,8.10
2019-01-15T13:55:29.113Z,8.00
2019-01-15T13:58:01.807Z,8.00
2019-01-15T14:00:34.494Z,7.90
2019-01-15T14:03:07.244Z,7.90
2019-01-15T14:05:40.989Z,7.90
2019-01-15T14:08:14.073Z,7.90
2019-01-15T14:10:46.807Z,7.80
2019-01-15T14:13:19.670Z,7.90
2019-01-15T14:15:53.863Z,7.90
2019-01-15T14:18:27.293Z,7.90
2019-01-15T14:20:59.974Z,7.90
2019-01-15T14:23:33.471Z,7.90
2019-01-15T14:26:06.250Z,7.90
2019-01-15T14:28:38.987Z,8.00
2019-01-15T14:31:13.018Z,8.00
2019-01-15T14:33:46.243Z,7.90
2019-01-15T14:36:20.096Z,7.90
2019-01-15T14:38:53.051Z,7.90
2019-01-15T14:41:25.767Z,7.80
2019-01-15T14:43:58.503Z,7.80
2019-01-15T14:46:31.304Z,7.80
2019-01-15T14:49:04.914Z,7.80
2019-01-15T14:51:38.007Z,7.70
2019-01-15T14:54:11.400Z,7.70
2019-01-15T14:56:44.912Z,7.70
2019-01-15T14:59:18.140Z,7.70
2019-01-15T15:01:51.510Z,7.70
2019-01-15T15:04:24.406Z,7.70
2019-01-15T15:06:57.500Z,7.60
2019-01-15T15:09:31.465Z,7.60
2019-01-15T15:12:04.377Z,7.60
2019-01-15T15:14:37.591Z,7.60
2019-01-15T15:17:10.445Z,7.60
2019-01-15T15:19:43.545Z,7.60
2019-01-15T15:22:16.574Z,7.60
2019-01-15T15:24:49.543Z,7.50
2019-01-15T15:27:22.497Z,7.50
2019-01-15T15:29:55.404Z,7.50
2019-01-15T15:32:28.794Z,7.50
2019-01-15T15:35:01.721Z,7.40
2019-01-15T15:37:34.635Z,7.40
2019-01-15T15:40:07.636Z,7.40
2019-01-15T15:42:40.950Z,7.40
2019-01-15T15:45:14.189Z,7.40
2019-01-15T15:47:47.338Z,7.40
2019-01-15T15:50:20.519Z,7.30
2019-01-15T15:52:53.564Z,7.30
2019-01-15T15:55:26.579Z,7.40
2019-01-15T15:57:59.407Z,7.30
2019-01-15T16:00:32.616Z,7.30
2019-01-15T16:03:05.687Z,7.30
2019-01-15T16:05:38.760Z,7.30
2019-01-15T16:08:13.814Z,7.30
2019-01-15T16:10:46.697Z,7.40
2019-01-15T16:13:19.560Z,7.30
2019-01-15T16:15:52.445Z,7.40
2019-01-15T16:18:25.586Z,7.30
2019-01-15T16:20:58.630Z,7.30
2019-01-15T16:23:31.575Z,7.30
2019-01-15T16:26:04.725Z,7.30
2019-01-15T16:28:37.843Z,7.30
2019-01-15T16:31:10.815Z,7.30
2019-01-15T16:33:43.980Z,7.20
2019-01-15T16:36:16.994Z,7.20
2019-01-15T16:38:49.838Z,7.30
2019-01-15T16:41:22.754Z,7.30
2019-01-15T16:43:55.602Z,7.30
2019-01-15T16:46:28.709Z,7.30
2019-01-15T16:49:01.959Z,7.30
2019-01-15T16:51:35.172Z,7.20
2019-01-15T16:54:08.188Z,7.30
2019-01-15T16:56:41.189Z,7.30
2019-01-15T16:59:14.051Z,7.30
2019-01-15T17:01:47.128Z,7.30
2019-01-15T17:04:20.087Z,7.30
2019-01-15T17:06:53.128Z,7.30
2019-01-15T17:09:26.187Z,7.30
2019-01-15T17:11:59.231Z,7.30
2019-01-15T17:14:32.191Z,7.30
2019-01-15T17:17:05.458Z,7.30
2019-01-15T17:19:38.321Z,7.30
2019-01-15T17:22:11.290Z,7.30
2019-01-15T17:24:44.197Z,7.30
2019-01-15T17:27:17.253Z,7.40
2019-01-15T17:29:50.355Z,7.40
2019-01-15T17:32:23.492Z,7.30
2019-01-15T17:34:56.337Z,7.40
2019-01-15T17:37:29.528Z,7.40
2019-01-15T17:40:02.761Z,7.40
2019-01-15T17:42:35.685Z,7.40
2019-01-15T17:45:08.682Z,7.50
2019-01-15T17:47:41.693Z,7.50
2019-01-15T17:50:14.613Z,7.50
2019-01-15T17:52:47.447Z,7.50
2019-01-15T17:55:20.760Z,7.50
2019-01-15T17:57:53.729Z,7.50
2019-01-15T18:00:26.662Z,7.50
2019-01-15T18:02:59.751Z,7.50
2019-01-15T18:05:32.689Z,7.50
2019-01-15T18:08:05.601Z,7.50
2019-01-15T18:10:38.650Z,7.40
2019-01-15T18:13:11.606Z,7.40
2019-01-15T18:15:44.653Z,7.40
2019-01-15T18:18:18.524Z,7.50
2019-01-15T18:20:51.227Z,7.50
2019-01-15T18:23:24.152Z,7.50
2019-01-15T18:25:57.106Z,7.40
2019-01-15T18:28:30.049Z,7.40
2019-01-15T18:31:02.983Z,7.40
2019-01-15T18:33:37.267Z,7.40
2019-01-15T18:36:10.853Z,7.40
2019-01-15T18:38:45.458Z,7.40
2019-01-15T18:41:18.940Z,7.40
2019-01-15T18:43:52.355Z,7.40
2019-01-15T18:46:25.639Z,7.40
2019-01-15T18:48:58.726Z,7.40
2019-01-15T18:51:31.708Z,7.30
2019-01-15T18:54:04.725Z,7.30
2019-01-15T18:56:37.535Z,7.30
2019-01-15T18:59:10.487Z,7.30
2019-01-15T19:01:43.319Z,7.30
2019-01-15T19:04:16.908Z,7.30
2019-01-15T19:06:49.944Z,7.30
2019-01-15T19:09:22.962Z,7.30
2019-01-15T19:11:55.920Z,7.40
2019-01-15T19:14:29.152Z,7.40
2019-01-15T19:17:03.485Z,7.40
2019-01-15T19:19:37.128Z,7.40
2019-01-15T19:22:10.259Z,7.30
2019-01-15T19:24:43.408Z,7.30
2019-01-15T19:27:16.470Z,7.30
2019-01-15T19:29:49.310Z,7.30
2019-01-15T19:32:22.239Z,7.30
2019-01-15T19:34:55.223Z,7.30
2019-01-15T19:37:28.185Z,7.30
2019-01-15T19:40:01.587Z,7.30
2019-01-15T19:42:35.005Z,7.30
2019-01-15T19:45:07.943Z,7.30
2019-01-15T19:47:41.834Z,7.30
2019-01-15T19:50:14.838Z,7.30
2019-01-15T19:52:50.720Z,7.30
2019-01-15T19:55:23.616Z,7.30
2019-01-15T19:57:56.795Z,7.30
2019-01-15T20:00:29.902Z,7.30
2019-01-15T20:03:03.064Z,7.30
2019-01-15T20:05:35.895Z,7.30
2019-01-15T20:08:08.618Z,7.30
2019-01-15T20:10:41.439Z,7.30
2019-01-15T20:13:14.784Z,7.20
2019-01-15T20:15:47.539Z,7.20
2019-01-15T20:18:20.505Z,7.20
2019-01-15T20:20:53.920Z,7.20
2019-01-15T20:23:26.640Z,7.20
2019-01-15T20:25:59.565Z,7.20
2019-01-15T20:28:32.588Z,7.10
2019-01-15T20:31:05.635Z,7.10
2019-01-15T20:33:38.630Z,7.10
2019-01-15T20:36:11.655Z,7.10
2019-01-15T20:38:44.672Z,7.10
2019-01-15T20:41:17.718Z,7.10
2019-01-15T20:43:50.785Z,7.10
2019-01-15T20:46:24.141Z,7.10
2019-01-15T20:48:57.899Z,7.10
2019-01-15T20:51:31.059Z,7.10
2019-01-15T20:54:04.138Z,7.10
2019-01-15T20:56:39.029Z,7.10
2019-01-15T20:59:21.534Z,7.10
2019-01-15T21:01:54.238Z,7.10
2019-01-15T21:04:27.223Z,7.10
2019-01-15T21:06:59.976Z,7.20
2019-01-15T21:09:32.642Z,7.20
2019-01-15T21:12:05.342Z,7.10
2019-01-15T21:14:38.042Z,7.20
2019-01-15T21:17:10.779Z,7.10
2019-01-15T21:19:43.507Z,7.10
2019-01-15T21:22:16.194Z,7.10
2019-01-15T21:24:48.899Z,7.00
2019-01-15T21:27:21.620Z,7.00
2019-01-15T21:29:54.387Z,6.90
2019-01-15T21:32:27.516Z,6.90
2019-01-15T21:35:00.740Z,6.90
2019-01-15T21:37:33.568Z,6.80
2019-01-15T21:40:06.272Z,6.80
2019-01-15T21:42:38.991Z,6.80
2019-01-15T21:45:11.724Z,6.80
